createdAt,value
2019-04-07T00:01:52.694Z,9.10
2019-04-07T00:06:58.829Z,9.11
2019-04-07T00:12:04.484Z,9.10
2019-04-07T00:17:10.525Z,9.17
2019-04-07T00:22:16.299Z,9.07
2019-04-07T00:27:22.360Z,8.84
2019-04-07T00:32:28.586Z,8.72
2019-04-07T00:37:34.337Z,8.92
2019-04-07T00:42:40.244Z,8.92
2019-04-07T00:47:46.136Z,8.84
2019-04-07T00:52:52.525Z,8.94
2019-04-07T00:57:59.456Z,8.87
2019-04-07T01:03:05.396Z,8.91
2019-04-07T01:08:11.719Z,8.93
2019-04-07T01:13:17.639Z,8.93
2019-04-07T01:18:26.814Z,8.73
2019-04-07T01:23:32.522Z,8.83
2019-04-07T01:28:38.103Z,8.77
2019-04-07T01:33:44.267Z,8.78
2019-04-07T01:38:50.240Z,8.88
2019-04-07T01:44:13.434Z,8.89
2019-04-07T01:49:23.811Z,8.92
2019-04-07T01:54:33.919Z,8.91
2019-04-07T01:59:41.077Z,8.94
2019-04-07T02:04:58.063Z,8.94
2019-04-07T02:10:09.752Z,8.94
2019-04-07T02:15:32.977Z,8.91
2019-04-07T02:20:52.198Z,8.93
2019-04-07T02:26:15.694Z,8.96
2019-04-07T02:31:23.860Z,8.96
2019-04-07T02:36:37.673Z,8.91
2019-04-07T02:41:45.082Z,8.85
2019-04-07T02:46:52.181Z,8.90
2019-04-07T02:52:18.530Z,8.71
2019-04-07T02:57:32.007Z,8.70
2019-04-07T03:02:39.423Z,8.73
2019-04-07T03:07:50.454Z,8.71
2019-04-07T03:12:58.877Z,8.74
2019-04-07T03:18:24.139Z,8.66
2019-04-07T03:23:30.532Z,8.63
2019-04-07T03:28:52.781Z,8.57
2019-04-07T03:34:20.773Z,8.51
2019-04-07T03:39:34.459Z,8.32
2019-04-07T03:44:41.610Z,8.28
2019-04-07T03:49:51.691Z,8.26
2019-04-07T03:55:02.266Z,8.18
2019-04-07T04:00:15.490Z,8.08
2019-04-07T04:05:41.395Z,8.12
2019-04-07T04:10:48.686Z,8.24
2019-04-07T04:15:58.942Z,8.17
2019-04-07T04:21:04.639Z,8.17
2019-04-07T04:26:10.263Z,8.15
2019-04-07T04:31:15.883Z,8.27
2019-04-07T04:36:22.169Z,8.32
2019-04-07T04:41:27.843Z,8.30
2019-04-07T04:46:34.415Z,8.18
2019-04-07T04:51:40.981Z,8.41
2019-04-07T04:56:46.959Z,8.38
2019-04-07T05:01:53.153Z,8.51
2019-04-07T05:06:59.487Z,8.66
2019-04-07T05:12:06.126Z,8.86
2019-04-07T05:17:12.665Z,8.90
2019-04-07T05:22:18.217Z,9.11
2019-04-07T05:27:23.941Z,9.55
2019-04-07T05:32:29.591Z,9.68
2019-04-07T05:37:35.416Z,9.73
2019-04-07T05:42:41.217Z,9.72
2019-04-07T05:47:48.677Z,9.60
2019-04-07T05:52:54.039Z,9.75
2019-04-07T05:58:03.440Z,9.94
2019-04-07T06:03:08.440Z,10.38
2019-04-07T06:08:24.772Z,11.15
2019-04-07T06:13:22.517Z,11.30
2019-04-07T06:18:31.935Z,11.58
2019-04-07T06:23:36.424Z,11.92
2019-04-07T06:28:42.023Z,12.25
2019-04-07T06:33:47.948Z,12.15
2019-04-07T06:38:53.720Z,12.03
2019-04-07T06:44:10.508Z,12.26
2019-04-07T06:49:12.349Z,12.17
2019-04-07T06:54:23.228Z,12.11
2019-04-07T06:59:33.142Z,12.27
2019-04-07T07:04:43.568Z,12.43
2019-04-07T07:09:49.140Z,12.43
2019-04-07T07:14:58.269Z,12.71
2019-04-07T07:20:27.605Z,13.02
2019-04-07T07:25:32.444Z,13.19
2019-04-07T07:30:40.445Z,13.69
2019-04-07T07:35:49.089Z,12.71
2019-04-07T07:40:53.482Z,12.73
2019-04-07T07:45:59.334Z,13.11
2019-04-07T07:51:08.108Z,12.96
2019-04-07T07:56:14.301Z,13.22
2019-04-07T08:01:20.029Z,12.82
2019-04-07T08:06:26.272Z,13.21
2019-04-07T08:11:34.405Z,13.39
2019-04-07T08:16:40.096Z,13.52
2019-04-07T08:21:50.305Z,13.84
2019-04-07T08:26:56.464Z,14.04
2019-04-07T08:32:03.230Z,13.73
2019-04-07T08:37:09.517Z,13.47
2019-04-07T08:42:18.617Z,13.50
2019-04-07T08:47:23.443Z,13.58
2019-04-07T08:52:29.118Z,13.48
2019-04-07T08:57:35.743Z,13.35
2019-04-07T09:02:41.656Z,13.33
2019-04-07T09:07:47.218Z,13.50
2019-04-07T09:12:52.769Z,13.69
2019-04-07T09:18:01.529Z,13.64
2019-04-07T09:23:12.418Z,13.57
2019-04-07T09:28:40.337Z,13.85
2019-04-07T09:33:50.678Z,14.21
2019-04-07T09:39:04.225Z,13.84
2019-04-07T09:44:11.526Z,13.80
2019-04-07T09:49:23.551Z,14.00
2019-04-07T09:54:36.168Z,14.01
2019-04-07T10:00:00.455Z,14.18
2019-04-07T10:05:24.945Z,14.39
2019-04-07T10:10:35.068Z,14.35
2019-04-07T10:15:43.125Z,14.48
2019-04-07T10:20:50.361Z,14.75
2019-04-07T10:26:00.581Z,14.52
2019-04-07T10:31:08.341Z,14.96
2019-04-07T10:36:19.465Z,14.90
2019-04-07T10:41:43.147Z,14.86
2019-04-07T10:47:02.413Z,14.28
2019-04-07T10:52:26.054Z,14.19
2019-04-07T10:57:33.436Z,14.24
2019-04-07T11:02:58.658Z,14.16
2019-04-07T11:08:14.978Z,13.99
2019-04-07T11:13:24.667Z,14.18
2019-04-07T11:18:47.718Z,13.86
2019-04-07T11:24:06.890Z,13.65
2019-04-07T11:29:16.653Z,13.61
2019-04-07T11:34:24.731Z,13.52
2019-04-07T11:39:32.651Z,13.66
2019-04-07T11:44:51.809Z,13.60
2019-04-07T11:50:15.349Z,13.58
2019-04-07T11:55:30.057Z,13.46
2019-04-07T12:00:53.917Z,13.45
2019-04-07T12:06:18.129Z,13.43
2019-04-07T12:11:25.930Z,13.32
2019-04-07T12:16:39.149Z,13.34
2019-04-07T12:21:46.800Z,13.33
2019-04-07T12:27:06.744Z,13.41
2019-04-07T12:32:13.836Z,13.38
2019-04-07T12:37:39.235Z,13.17
2019-04-07T12:42:51.306Z,13.37
2019-04-07T12:48:14.565Z,13.18
2019-04-07T12:53:40.057Z,13.08
2019-04-07T12:59:05.579Z,13.02
2019-04-07T13:04:29.925Z,13.11
2019-04-07T13:09:40.640Z,13.08
2019-04-07T13:14:47.882Z,13.08
2019-04-07T13:20:11.942Z,13.06
2019-04-07T13:25:29.958Z,13.32
2019-04-07T13:30:54.881Z,13.35
2019-04-07T13:36:02.132Z,13.74
2019-04-07T13:41:09.434Z,13.89
2019-04-07T13:46:31.823Z,14.13
2019-04-07T13:51:49.512Z,14.46
2019-04-07T13:57:11.945Z,14.21
2019-04-07T14:02:35.595Z,14.15
2019-04-07T14:07:42.824Z,13.78
2019-04-07T14:13:06.331Z,13.93
2019-04-07T14:18:16.658Z,14.18
2019-04-07T14:23:24.066Z,14.25
2019-04-07T14:28:50.089Z,14.21
2019-04-07T14:34:14.018Z,13.82
2019-04-07T14:39:37.276Z,14.21
2019-04-07T14:44:47.439Z,14.18
2019-04-07T14:49:58.927Z,14.35
2019-04-07T14:55:10.896Z,14.55
2019-04-07T15:00:34.017Z,14.44
2019-04-07T15:05:49.477Z,14.21
2019-04-07T15:10:56.656Z,14.20
2019-04-07T15:16:03.934Z,14.01
2019-04-07T15:21:09.907Z,14.04
2019-04-07T15:26:16.707Z,13.94
2019-04-07T15:31:23.160Z,14.14
2019-04-07T15:36:28.937Z,14.00
2019-04-07T15:41:34.643Z,14.03
2019-04-07T15:46:40.256Z,13.95
2019-04-07T15:51:45.785Z,14.00
2019-04-07T15:56:51.583Z,13.89
2019-04-07T16:01:57.341Z,13.90
2019-04-07T16:07:03.079Z,13.60
2019-04-07T16:12:10.006Z,13.58
2019-04-07T16:17:15.884Z,13.37
2019-04-07T16:22:21.448Z,13.40
2019-04-07T16:27:27.185Z,13.32
2019-04-07T16:32:33.859Z,13.26
2019-04-07T16:37:40.273Z,13.11
2019-04-07T16:43:02.656Z,13.10
2019-04-07T16:47:54.225Z,12.98
2019-04-07T16:53:03.033Z,12.80
2019-04-07T16:58:08.436Z,12.78
2019-04-07T17:03:15.274Z,12.75
2019-04-07T17:08:22.513Z,12.76
2019-04-07T17:13:38.137Z,12.62
2019-04-07T17:18:39.581Z,12.67
2019-04-07T17:23:45.636Z,12.57
2019-04-07T17:28:51.224Z,12.29
2019-04-07T17:33:56.858Z,12.19
2019-04-07T17:39:09.312Z,12.18
2019-04-07T17:44:22.086Z,11.99
2019-04-07T17:49:42.762Z,12.15
2019-04-07T17:54:58.990Z,11.99
2019-04-07T18:00:18.001Z,11.85
2019-04-07T18:05:38.713Z,11.81
2019-04-07T18:11:01.085Z,11.80
2019-04-07T18:16:25.544Z,11.69
2019-04-07T18:21:36.629Z,11.59
2019-04-07T18:26:45.256Z,11.54
2019-04-07T18:31:58.492Z,11.52
2019-04-07T18:37:13.653Z,11.39
2019-04-07T18:42:36.823Z,11.17
2019-04-07T18:48:00.132Z,11.07
2019-04-07T18:53:07.492Z,11.04
2019-04-07T18:58:31.174Z,11.03
2019-04-07T19:03:54.915Z,10.95
2019-04-07T19:09:02.133Z,10.82
2019-04-07T19:14:40.213Z,10.84
2019-04-07T19:19:37.521Z,10.67
2019-04-07T19:24:47.601Z,10.75
2019-04-07T19:30:13.859Z,10.67
2019-04-07T19:35:19.344Z,10.68
2019-04-07T19:40:38.736Z,10.69
2019-04-07T19:45:55.275Z,10.51
2019-04-07T19:51:03.185Z,10.40
2019-04-07T19:56:19.421Z,10.44
2019-04-07T20:01:29.222Z,10.43
2019-04-07T20:06:36.558Z,10.33
2019-04-07T20:11:49.897Z,10.29
2019-04-07T20:17:16.443Z,10.16
2019-04-07T20:22:24.055Z,10.15
2019-04-07T20:27:34.332Z,10.27
2019-04-07T20:32:47.193Z,10.09
2019-04-07T20:38:10.614Z,10.14
2019-04-07T20:43:35.098Z,9.94
2019-04-07T20:48:59.259Z,9.97
2019-04-07T20:54:07.581Z,9.86
2019-04-07T20:59:14.812Z,9.72
2019-04-07T21:04:39.573Z,9.88
2019-04-07T21:09:48.109Z,9.79
2019-04-07T21:15:21.125Z,9.82
2019-04-07T21:20:29.964Z,9.85
2019-04-07T21:25:51.678Z,9.78
2019-04-07T21:31:18.605Z,9.63
2019-04-07T21:36:28.211Z,9.64
2019-04-07T21:41:44.430Z,9.73
2019-04-07T21:47:06.468Z,9.67
2019-04-07T21:52:19.493Z,9.74
2019-04-07T21:57:30.612Z,9.68
2019-04-07T22:02:47.873Z,9.69
2019-04-07T22:08:16.996Z,9.61
2019-04-07T22:13:18.255Z,9.66
2019-04-07T22:18:23.976Z,9.59
2019-04-07T22:23:31.430Z,9.54
2019-04-07T22:28:37.285Z,9.44
2019-04-07T22:33:42.997Z,9.46
2019-04-07T22:38:51.688Z,9.45
2019-04-07T22:43:56.053Z,9.50
2019-04-07T22:49:01.739Z,9.51
2019-04-07T22:54:07.910Z,9.47
2019-04-07T22:59:13.595Z,9.56
2019-04-07T23:04:19.175Z,9.51
2019-04-07T23:09:25.901Z,9.50
2019-04-07T23:14:31.740Z,9.23
2019-04-07T23:19:37.882Z,9.27
2019-04-07T23:24:43.615Z,9.27
2019-04-07T23:29:49.294Z,9.40
2019-04-07T23:34:55.479Z,9.40
2019-04-07T23:40:02.413Z,9.26
2019-04-07T23:45:08.576Z,9.27
2019-04-07T23:50:15.516Z,9.40
2019-04-07T23:55:21.854Z,9.30
